BUU weather

Burlington Municipal Airport
Burlington, Wisconsin, United States

Public forecast

Using degrees Fahrenheit for public forecast. Weather courtesy of forecast.io.

Current aviation weather report (METAR) for Burlington Municipal Airport

Retrieved 2020/01/26 04:35 UTC (14 minutes ago):

KBUU 260435Z AUTO 29008KT 10SM SCT009 BKN016 OVC046 01/00 A2986 RMK AO2 T00090000

Closest aviation forecast (TAF) to Burlington Municipal Airport

Closest forecast is Kenosha Regional Airport, 17.6 nm (32.6 km) ESE. Retrieved 2020-01-26 00:28 UTC (4 hours ago):

TAF KENW 252326Z 2600/2624 28007KT P6SM BKN017 OVC025 FM261800 27010KT P6SM SCT018 OVC025